createdAt,value
2017-12-17T00:00:03.507Z,74.20
2017-12-17T00:02:31.101Z,74.00
2017-12-17T00:04:59.376Z,74.80
2017-12-17T00:07:26.876Z,74.60
2017-12-17T00:09:54.448Z,74.40
2017-12-17T00:12:21.920Z,74.10
2017-12-17T00:14:49.474Z,73.70
2017-12-17T00:17:16.983Z,73.80
2017-12-17T00:19:44.478Z,73.50
2017-12-17T00:22:12.733Z,73.70
2017-12-17T00:24:40.264Z,73.70
2017-12-17T00:27:07.771Z,73.40
2017-12-17T00:29:36.053Z,73.40
2017-12-17T00:32:03.617Z,73.40
2017-12-17T00:34:31.909Z,74.00
2017-12-17T00:36:59.416Z,73.90
2017-12-17T00:39:27.567Z,74.30
2017-12-17T00:41:55.248Z,73.80
2017-12-17T00:44:24.881Z,73.70
2017-12-17T00:46:52.843Z,73.70
2017-12-17T00:49:21.369Z,73.50
2017-12-17T00:51:50.411Z,73.60
2017-12-17T00:54:17.957Z,73.60
2017-12-17T00:56:45.527Z,73.60
2017-12-17T00:59:13.050Z,73.60
2017-12-17T01:01:41.591Z,74.00
2017-12-17T01:04:09.181Z,73.70
2017-12-17T01:06:36.931Z,74.00
2017-12-17T01:09:04.438Z,73.80
2017-12-17T01:11:32.157Z,73.70
2017-12-17T01:13:59.662Z,73.50
2017-12-17T01:16:28.282Z,73.90
2017-12-17T01:18:56.628Z,73.90
2017-12-17T01:21:24.186Z,73.90
2017-12-17T01:23:51.835Z,73.90
2017-12-17T01:26:19.314Z,74.00
2017-12-17T01:28:46.997Z,74.20
2017-12-17T01:31:14.624Z,74.20
2017-12-17T01:33:43.298Z,74.30
2017-12-17T01:36:10.814Z,74.30
2017-12-17T01:38:38.314Z,74.10
2017-12-17T01:41:05.834Z,74.20
2017-12-17T01:43:34.409Z,74.50
2017-12-17T01:46:03.681Z,74.50
2017-12-17T01:48:31.444Z,74.70
2017-12-17T01:50:58.918Z,74.90
2017-12-17T01:53:26.420Z,74.30
2017-12-17T01:55:54.231Z,74.40
2017-12-17T01:58:22.044Z,74.50
2017-12-17T02:00:49.712Z,74.50
2017-12-17T02:03:17.246Z,74.80
2017-12-17T02:05:45.587Z,74.80
2017-12-17T02:08:13.865Z,74.90
2017-12-17T02:10:41.467Z,74.90
2017-12-17T02:13:09.027Z,74.60
2017-12-17T02:15:37.412Z,74.70
2017-12-17T02:18:06.357Z,74.90
2017-12-17T02:20:33.886Z,75.00
2017-12-17T02:23:01.376Z,74.90
2017-12-17T02:25:28.888Z,75.20
2017-12-17T02:27:57.938Z,75.40
2017-12-17T02:30:25.654Z,75.40
2017-12-17T02:32:53.929Z,75.10
2017-12-17T02:35:22.888Z,75.60
2017-12-17T02:37:51.164Z,76.00
2017-12-17T02:40:18.660Z,75.80
2017-12-17T02:42:46.927Z,75.90
2017-12-17T02:45:14.447Z,75.90
2017-12-17T02:47:41.964Z,75.60
2017-12-17T02:50:10.707Z,76.00
2017-12-17T02:52:38.883Z,75.30
2017-12-17T02:55:08.195Z,75.50
2017-12-17T02:57:35.699Z,75.50
2017-12-17T03:00:04.587Z,76.60
2017-12-17T03:02:32.954Z,76.20
2017-12-17T03:05:00.458Z,76.50
2017-12-17T03:07:27.987Z,76.10
2017-12-17T03:09:55.472Z,76.00
2017-12-17T03:12:23.748Z,76.00
2017-12-17T03:14:52.689Z,75.00
2017-12-17T03:17:20.438Z,74.60
2017-12-17T03:19:49.091Z,74.50
2017-12-17T03:22:17.769Z,74.20
2017-12-17T03:24:47.333Z,74.20
2017-12-17T03:27:14.860Z,75.00
2017-12-17T03:29:42.343Z,75.20
2017-12-17T03:32:10.650Z,76.60
2017-12-17T03:34:38.144Z,76.60
2017-12-17T03:37:06.286Z,76.60
2017-12-17T03:39:33.784Z,76.20
2017-12-17T03:42:01.260Z,76.50
2017-12-17T03:44:29.093Z,76.80
2017-12-17T03:46:56.569Z,76.30
2017-12-17T03:49:24.077Z,76.50
2017-12-17T03:51:52.349Z,76.60
2017-12-17T03:54:19.945Z,76.60
2017-12-17T03:56:47.439Z,76.70
2017-12-17T03:59:14.958Z,76.70
2017-12-17T04:01:44.380Z,76.40
2017-12-17T04:04:11.956Z,76.10
2017-12-17T04:06:39.456Z,76.50
2017-12-17T04:09:07.010Z,75.90
2017-12-17T04:11:34.778Z,76.10
2017-12-17T04:14:03.138Z,76.00
2017-12-17T04:16:30.634Z,76.10
2017-12-17T04:18:58.393Z,75.60
2017-12-17T04:21:25.887Z,75.90
2017-12-17T04:23:54.163Z,75.80
2017-12-17T04:26:21.653Z,75.90
2017-12-17T04:28:49.180Z,75.90
2017-12-17T04:31:16.667Z,75.90
2017-12-17T04:33:44.921Z,74.90
2017-12-17T04:36:12.505Z,74.80
2017-12-17T04:38:41.617Z,74.10
2017-12-17T04:41:09.920Z,73.90
2017-12-17T04:43:37.815Z,73.90
2017-12-17T04:46:06.253Z,74.00
2017-12-17T04:48:33.782Z,74.70
2017-12-17T04:51:01.822Z,75.50
2017-12-17T04:53:29.331Z,74.80
2017-12-17T04:55:56.833Z,74.80
2017-12-17T04:58:24.323Z,74.80
2017-12-17T05:00:51.842Z,74.70
2017-12-17T05:03:20.092Z,74.70
2017-12-17T05:05:47.617Z,74.70
2017-12-17T05:08:15.110Z,75.20
2017-12-17T05:10:42.593Z,75.00
2017-12-17T05:13:10.090Z,75.00
2017-12-17T05:15:37.628Z,75.20
2017-12-17T05:18:05.108Z,74.40
2017-12-17T05:20:33.371Z,74.90
2017-12-17T05:23:00.871Z,74.90
2017-12-17T05:25:28.348Z,75.30
2017-12-17T05:27:55.844Z,75.90
2017-12-17T05:30:23.328Z,75.20
2017-12-17T05:32:51.604Z,75.50
2017-12-17T05:35:19.085Z,75.50
2017-12-17T05:37:46.570Z,76.80
2017-12-17T05:40:14.078Z,75.90
2017-12-17T05:42:41.543Z,76.10
2017-12-17T05:45:10.919Z,76.10
2017-12-17T05:47:38.456Z,75.40
2017-12-17T05:50:06.877Z,75.20
2017-12-17T05:52:34.358Z,75.20
2017-12-17T05:55:03.140Z,76.10
2017-12-17T05:57:30.642Z,75.60
2017-12-17T05:59:58.958Z,76.20
2017-12-17T06:02:26.447Z,76.20
2017-12-17T06:04:53.914Z,76.30
2017-12-17T06:07:21.442Z,75.80
2017-12-17T06:09:48.942Z,76.00
2017-12-17T06:12:16.417Z,75.40
2017-12-17T06:14:44.732Z,75.20
2017-12-17T06:17:12.229Z,75.10
2017-12-17T06:19:39.757Z,74.90
2017-12-17T06:22:07.329Z,75.70
2017-12-17T06:24:34.892Z,75.80
2017-12-17T06:27:03.150Z,75.70
2017-12-17T06:29:31.400Z,75.20
2017-12-17T06:31:59.721Z,75.20
2017-12-17T06:34:27.205Z,75.10
2017-12-17T06:36:54.769Z,74.80
2017-12-17T06:39:22.378Z,74.80
2017-12-17T06:41:49.902Z,74.30
2017-12-17T06:44:17.399Z,74.40
2017-12-17T06:46:45.429Z,74.60
2017-12-17T06:49:12.947Z,74.70
2017-12-17T06:51:40.424Z,74.50
2017-12-17T06:54:08.690Z,74.10
2017-12-17T06:56:36.513Z,74.00
2017-12-17T06:59:04.069Z,73.70
2017-12-17T07:01:31.910Z,73.50
2017-12-17T07:03:59.510Z,73.50
2017-12-17T07:06:27.045Z,73.70
2017-12-17T07:08:55.292Z,73.90
2017-12-17T07:11:22.790Z,73.80
2017-12-17T07:13:51.053Z,73.60
2017-12-17T07:16:19.325Z,73.10
2017-12-17T07:18:46.833Z,73.00
2017-12-17T07:21:14.311Z,73.00
2017-12-17T07:23:41.831Z,72.80
2017-12-17T07:26:11.061Z,72.90
2017-12-17T07:28:38.618Z,72.90
2017-12-17T07:31:06.337Z,72.60
2017-12-17T07:33:35.365Z,72.30
2017-12-17T07:36:04.078Z,72.60
2017-12-17T07:38:31.580Z,72.40
2017-12-17T07:40:59.181Z,72.30
2017-12-17T07:43:27.501Z,72.40
2017-12-17T07:45:55.117Z,72.40
2017-12-17T07:48:25.085Z,73.30
2017-12-17T07:50:52.610Z,72.50
2017-12-17T07:53:20.869Z,72.50
2017-12-17T07:55:50.906Z,72.50
2017-12-17T07:58:19.164Z,72.50
2017-12-17T08:00:46.686Z,72.50
2017-12-17T08:03:15.001Z,73.20
2017-12-17T08:05:43.292Z,73.10
2017-12-17T08:08:11.625Z,75.30
2017-12-17T08:10:39.106Z,75.20
2017-12-17T08:13:06.597Z,75.20
2017-12-17T08:15:35.448Z,76.60
2017-12-17T08:18:03.936Z,77.40
2017-12-17T08:20:31.448Z,77.40
2017-12-17T08:22:59.320Z,77.30
2017-12-17T08:25:26.808Z,77.10
2017-12-17T08:27:55.253Z,76.80
2017-12-17T08:30:22.813Z,76.80
2017-12-17T08:32:50.297Z,76.40
2017-12-17T08:35:19.723Z,76.30
2017-12-17T08:37:47.262Z,76.10
2017-12-17T08:40:14.746Z,75.80
2017-12-17T08:42:43.013Z,75.00
2017-12-17T08:45:10.520Z,75.00
2017-12-17T08:47:38.011Z,72.90
2017-12-17T08:50:05.505Z,72.80
2017-12-17T08:52:33.055Z,73.40
2017-12-17T08:55:00.574Z,74.20
2017-12-17T08:57:28.083Z,74.50
2017-12-17T08:59:56.678Z,73.40
2017-12-17T09:02:24.259Z,73.40
2017-12-17T09:04:52.504Z,73.00
2017-12-17T09:07:20.757Z,73.00
2017-12-17T09:09:48.336Z,72.50
2017-12-17T09:12:16.073Z,72.70
2017-12-17T09:14:44.323Z,71.90
2017-12-17T09:17:11.881Z,71.90
2017-12-17T09:19:39.525Z,72.20
2017-12-17T09:22:07.036Z,72.40
2017-12-17T09:24:35.318Z,72.50
2017-12-17T09:27:03.573Z,72.20
2017-12-17T09:29:31.146Z,72.20
2017-12-17T09:31:59.429Z,71.40
2017-12-17T09:34:27.682Z,71.50
2017-12-17T09:36:55.191Z,71.50
2017-12-17T09:39:23.498Z,71.20
2017-12-17T09:41:51.002Z,71.20
2017-12-17T09:44:18.483Z,71.10
2017-12-17T09:46:46.751Z,72.10
2017-12-17T09:49:14.319Z,72.10
2017-12-17T09:51:41.826Z,72.70
2017-12-17T09:54:09.577Z,73.90
2017-12-17T09:56:37.381Z,74.40
2017-12-17T09:59:04.873Z,74.90
2017-12-17T10:01:32.385Z,75.30
2017-12-17T10:03:59.887Z,75.30
2017-12-17T10:06:27.462Z,74.80
2017-12-17T10:08:55.776Z,74.10
2017-12-17T10:11:24.030Z,73.50
2017-12-17T10:13:51.530Z,73.40
2017-12-17T10:16:19.040Z,72.90
2017-12-17T10:18:46.524Z,73.40
2017-12-17T10:21:14.053Z,73.50
2017-12-17T10:23:41.610Z,73.00
2017-12-17T10:26:09.101Z,72.10
2017-12-17T10:28:37.364Z,71.80
2017-12-17T10:31:04.845Z,71.80
2017-12-17T10:33:32.348Z,71.20
2017-12-17T10:35:59.920Z,71.10
2017-12-17T10:38:28.322Z,71.30
2017-12-17T10:40:56.743Z,71.00
2017-12-17T10:43:24.324Z,71.00
2017-12-17T10:45:52.706Z,70.50
2017-12-17T10:48:20.216Z,70.50
2017-12-17T10:50:48.591Z,70.20
2017-12-17T10:53:16.180Z,68.00
2017-12-17T10:55:43.712Z,68.90
2017-12-17T10:58:11.241Z,69.50
2017-12-17T11:00:39.514Z,70.20
2017-12-17T11:03:07.098Z,70.20
2017-12-17T11:05:35.349Z,70.20
2017-12-17T11:08:03.801Z,70.60
2017-12-17T11:10:32.128Z,70.50
2017-12-17T11:13:01.155Z,69.90
2017-12-17T11:15:28.644Z,69.90
2017-12-17T11:17:56.502Z,68.90
2017-12-17T11:20:24.043Z,68.10
2017-12-17T11:22:52.293Z,68.20
2017-12-17T11:25:19.788Z,68.10
2017-12-17T11:27:47.281Z,67.40
2017-12-17T11:30:14.786Z,68.50
2017-12-17T11:32:44.656Z,68.60
2017-12-17T11:35:12.648Z,68.70
2017-12-17T11:37:40.150Z,68.50
2017-12-17T11:40:07.708Z,68.10
2017-12-17T11:42:35.759Z,68.60
2017-12-17T11:45:03.299Z,68.20
2017-12-17T11:47:30.859Z,68.60
2017-12-17T11:49:58.394Z,68.40
2017-12-17T11:52:26.653Z,67.50
2017-12-17T11:54:54.149Z,67.60
2017-12-17T11:57:21.689Z,68.30
2017-12-17T11:59:50.931Z,68.90
2017-12-17T12:02:18.428Z,68.80
2017-12-17T12:04:45.906Z,68.40
2017-12-17T12:07:13.520Z,67.60
2017-12-17T12:09:41.020Z,67.20
2017-12-17T12:12:08.508Z,67.40
2017-12-17T12:14:35.981Z,67.50
2017-12-17T12:17:04.263Z,67.40
2017-12-17T12:19:32.562Z,67.70
2017-12-17T12:22:00.046Z,67.70
2017-12-17T12:24:28.342Z,68.30
2017-12-17T12:26:55.862Z,68.20
2017-12-17T12:29:24.157Z,68.90
2017-12-17T12:31:51.783Z,68.90
2017-12-17T12:34:20.047Z,68.00
2017-12-17T12:36:47.558Z,68.00
2017-12-17T12:39:15.041Z,67.70
2017-12-17T12:41:42.524Z,68.50
2017-12-17T12:44:10.001Z,68.30
2017-12-17T12:46:37.483Z,67.90
2017-12-17T12:49:05.042Z,67.20
2017-12-17T12:51:33.551Z,67.40
2017-12-17T12:54:02.032Z,68.80
2017-12-17T12:56:30.277Z,67.60
2017-12-17T12:58:57.775Z,67.60
2017-12-17T13:01:26.048Z,67.80
2017-12-17T13:03:54.363Z,68.50
2017-12-17T13:06:21.930Z,68.50
2017-12-17T13:08:49.463Z,68.30
2017-12-17T13:11:17.741Z,67.30
2017-12-17T13:13:45.976Z,67.40
2017-12-17T13:16:13.531Z,67.40
2017-12-17T13:18:41.011Z,66.40
2017-12-17T13:21:08.524Z,67.10
2017-12-17T13:23:36.029Z,67.50
2017-12-17T13:26:03.567Z,67.10
2017-12-17T13:28:31.096Z,67.50
2017-12-17T13:30:59.375Z,66.80
2017-12-17T13:33:27.622Z,67.10
2017-12-17T13:35:55.100Z,67.10
2017-12-17T13:38:22.592Z,66.90
2017-12-17T13:40:50.837Z,66.70
2017-12-17T13:43:18.426Z,66.60
2017-12-17T13:45:46.700Z,67.00
2017-12-17T13:48:15.708Z,66.70
2017-12-17T13:50:43.969Z,66.10
2017-12-17T13:53:11.529Z,66.10
2017-12-17T13:55:39.152Z,66.50
2017-12-17T13:58:06.628Z,66.80
2017-12-17T14:00:34.130Z,67.20
2017-12-17T14:03:01.642Z,67.40
2017-12-17T14:05:29.139Z,66.60
2017-12-17T14:07:56.660Z,65.80
2017-12-17T14:10:24.398Z,66.20
2017-12-17T14:12:52.712Z,66.40
2017-12-17T14:15:20.277Z,66.40
2017-12-17T14:17:47.815Z,67.10
2017-12-17T14:20:16.076Z,65.80
2017-12-17T14:22:43.564Z,65.80
2017-12-17T14:25:11.837Z,66.40
2017-12-17T14:27:40.105Z,67.00
2017-12-17T14:30:08.501Z,66.80
2017-12-17T14:32:36.792Z,66.70
2017-12-17T14:35:04.294Z,66.60
2017-12-17T14:37:31.795Z,66.00
2017-12-17T14:40:00.082Z,66.20
2017-12-17T14:42:28.352Z,66.00
2017-12-17T14:44:55.961Z,66.00
2017-12-17T14:47:23.480Z,66.60
2017-12-17T14:49:51.732Z,66.30
2017-12-17T14:52:19.523Z,66.30
2017-12-17T14:54:48.581Z,67.00
2017-12-17T14:57:16.053Z,66.90
2017-12-17T14:59:43.559Z,66.30
2017-12-17T15:02:11.944Z,66.30
2017-12-17T15:04:40.285Z,65.80
2017-12-17T15:07:07.788Z,65.70
2017-12-17T15:09:36.049Z,64.90
2017-12-17T15:12:03.548Z,64.80
2017-12-17T15:14:31.871Z,64.90
2017-12-17T15:16:59.416Z,64.90
2017-12-17T15:19:26.897Z,64.40
2017-12-17T15:21:54.422Z,64.90
2017-12-17T15:24:22.694Z,64.10
2017-12-17T15:26:50.970Z,63.30
2017-12-17T15:29:19.244Z,63.80
2017-12-17T15:31:47.589Z,64.60
2017-12-17T15:34:15.081Z,64.50
2017-12-17T15:36:42.795Z,64.60
2017-12-17T15:39:10.328Z,64.00
2017-12-17T15:41:38.568Z,63.90
2017-12-17T15:44:06.071Z,63.90
2017-12-17T15:46:34.358Z,64.10
2017-12-17T15:49:02.729Z,64.50
2017-12-17T15:51:31.013Z,65.20
2017-12-17T15:53:59.298Z,65.40
2017-12-17T15:56:27.565Z,65.90
2017-12-17T15:58:55.102Z,65.90
2017-12-17T16:01:22.612Z,66.00
2017-12-17T16:03:50.188Z,66.20
2017-12-17T16:06:17.686Z,66.30
2017-12-17T16:08:45.197Z,65.70
2017-12-17T16:11:13.453Z,66.20
2017-12-17T16:13:40.976Z,66.20
2017-12-17T16:16:08.469Z,66.20
2017-12-17T16:18:35.987Z,66.40
2017-12-17T16:21:03.532Z,65.50
2017-12-17T16:23:31.821Z,65.20
2017-12-17T16:26:00.216Z,65.00
2017-12-17T16:28:27.719Z,65.00
2017-12-17T16:30:55.210Z,64.50
2017-12-17T16:33:23.532Z,62.80
2017-12-17T16:35:51.025Z,62.80
2017-12-17T16:38:18.507Z,63.30
2017-12-17T16:40:45.991Z,64.40
2017-12-17T16:43:14.302Z,64.90
2017-12-17T16:45:41.814Z,64.80
2017-12-17T16:48:09.352Z,63.80
2017-12-17T16:50:36.901Z,64.40
2017-12-17T16:53:04.566Z,65.20
2017-12-17T16:55:32.055Z,64.50
2017-12-17T16:57:59.547Z,65.20
2017-12-17T17:00:27.858Z,64.20
2017-12-17T17:02:55.422Z,64.20
2017-12-17T17:05:22.983Z,62.00
2017-12-17T17:07:50.502Z,62.40
2017-12-17T17:10:17.994Z,62.60
2017-12-17T17:12:46.269Z,63.70
2017-12-17T17:15:14.548Z,63.80
2017-12-17T17:17:42.939Z,63.60
2017-12-17T17:20:11.196Z,63.00
2017-12-17T17:22:40.251Z,62.60
2017-12-17T17:25:07.760Z,62.60
2017-12-17T17:27:35.273Z,62.10
2017-12-17T17:30:02.786Z,61.70
2017-12-17T17:32:30.297Z,62.30
2017-12-17T17:34:57.867Z,61.90
2017-12-17T17:37:25.394Z,61.80
2017-12-17T17:39:52.869Z,62.00
2017-12-17T17:42:21.252Z,62.30
2017-12-17T17:44:49.499Z,60.80
2017-12-17T17:47:17.104Z,60.60
2017-12-17T17:49:44.592Z,60.50
2017-12-17T17:52:12.135Z,62.00
2017-12-17T17:54:39.676Z,63.20
2017-12-17T17:57:07.936Z,63.40
2017-12-17T17:59:35.467Z,63.40
2017-12-17T18:02:03.044Z,64.00
2017-12-17T18:04:30.548Z,64.30
2017-12-17T18:06:58.828Z,63.10
2017-12-17T18:09:27.253Z,60.70
2017-12-17T18:11:55.115Z,60.70
2017-12-17T18:14:23.106Z,60.70
2017-12-17T18:16:51.407Z,60.30
2017-12-17T18:19:18.875Z,60.20
2017-12-17T18:21:46.496Z,60.50
2017-12-17T18:24:13.968Z,61.00
2017-12-17T18:26:41.467Z,61.30
2017-12-17T18:29:08.949Z,61.90
2017-12-17T18:31:37.272Z,62.10
2017-12-17T18:34:04.889Z,62.00
2017-12-17T18:36:32.376Z,62.00
2017-12-17T18:39:00.833Z,62.90
2017-12-17T18:41:28.340Z,62.90
2017-12-17T18:43:55.867Z,61.60
2017-12-17T18:46:23.415Z,61.80
2017-12-17T18:48:50.979Z,62.40
2017-12-17T18:51:18.424Z,62.70
2017-12-17T18:53:47.271Z,63.30
2017-12-17T18:56:15.545Z,62.40
2017-12-17T18:58:43.822Z,60.80
2017-12-17T19:01:12.113Z,60.60
2017-12-17T19:03:39.617Z,60.60
2017-12-17T19:06:07.099Z,61.00
2017-12-17T19:08:34.636Z,61.40
2017-12-17T19:11:02.143Z,61.90
2017-12-17T19:13:29.644Z,62.30
2017-12-17T19:15:57.190Z,62.20
2017-12-17T19:18:25.447Z,62.10
2017-12-17T19:20:53.727Z,62.80
2017-12-17T19:23:21.307Z,62.50
2017-12-17T19:25:49.875Z,62.30
2017-12-17T19:28:17.380Z,62.30
2017-12-17T19:30:44.952Z,61.10
2017-12-17T19:33:12.502Z,60.10
2017-12-17T19:35:40.008Z,60.60
2017-12-17T19:38:07.506Z,61.20
2017-12-17T19:40:35.824Z,61.50
2017-12-17T19:43:03.396Z,61.50
2017-12-17T19:45:30.837Z,60.90
2017-12-17T19:47:58.338Z,61.10
2017-12-17T19:50:25.917Z,61.40
2017-12-17T19:52:53.559Z,61.80
2017-12-17T19:55:21.220Z,61.90
2017-12-17T19:57:49.084Z,62.10
2017-12-17T20:00:16.957Z,62.40
2017-12-17T20:02:44.930Z,62.10
2017-12-17T20:05:12.904Z,61.60
2017-12-17T20:07:40.978Z,62.10
2017-12-17T20:10:14.846Z,62.10
2017-12-17T20:12:42.757Z,62.20
2017-12-17T20:15:10.739Z,62.40
2017-12-17T20:17:39.223Z,62.40
2017-12-17T20:20:07.095Z,62.70
2017-12-17T20:22:34.959Z,62.00
2017-12-17T20:25:03.756Z,62.30
2017-12-17T20:27:31.834Z,61.90
2017-12-17T20:29:59.802Z,61.90
2017-12-17T20:32:27.680Z,62.20
2017-12-17T20:34:55.546Z,61.70
2017-12-17T20:37:23.419Z,61.90
2017-12-17T20:39:51.289Z,62.10
2017-12-17T20:42:19.163Z,61.70
2017-12-17T20:44:47.118Z,61.80
2017-12-17T20:47:14.642Z,61.60
2017-12-17T20:49:42.164Z,61.70
2017-12-17T20:52:09.653Z,62.00
2017-12-17T20:54:37.688Z,58.90
2017-12-17T20:57:05.168Z,57.90
2017-12-17T20:59:32.677Z,58.30
2017-12-17T21:02:00.158Z,58.10
2017-12-17T21:04:28.461Z,58.50
2017-12-17T21:06:55.963Z,58.40
2017-12-17T21:09:23.473Z,58.20
2017-12-17T21:11:51.847Z,56.40
2017-12-17T21:14:20.117Z,54.40
2017-12-17T21:16:47.709Z,54.40
2017-12-17T21:19:15.293Z,54.90
2017-12-17T21:21:42.960Z,54.50
2017-12-17T21:24:10.473Z,55.20
2017-12-17T21:26:38.001Z,55.20
2017-12-17T21:29:05.529Z,55.50
2017-12-17T21:31:33.033Z,54.90
2017-12-17T21:34:00.556Z,54.20
2017-12-17T21:36:28.081Z,54.40
2017-12-17T21:38:55.708Z,53.90
2017-12-17T21:41:23.419Z,53.20
2017-12-17T21:43:50.920Z,52.50
2017-12-17T21:46:18.447Z,53.70
2017-12-17T21:48:45.960Z,55.80
2017-12-17T21:51:13.553Z,56.60
2017-12-17T21:53:41.040Z,57.50
2017-12-17T21:56:08.534Z,59.10
2017-12-17T21:58:36.016Z,59.90
2017-12-17T22:01:03.550Z,60.70
2017-12-17T22:03:31.799Z,61.90
2017-12-17T22:05:59.304Z,61.90
2017-12-17T22:08:26.784Z,62.30
2017-12-17T22:10:54.280Z,62.70
2017-12-17T22:13:21.892Z,63.40
2017-12-17T22:15:49.432Z,63.60
2017-12-17T22:18:16.952Z,63.40
2017-12-17T22:20:44.454Z,64.20
2017-12-17T22:23:11.949Z,63.90
2017-12-17T22:25:39.519Z,64.00
2017-12-17T22:28:07.097Z,63.60
2017-12-17T22:30:34.601Z,64.10
2017-12-17T22:33:02.103Z,63.80
2017-12-17T22:35:29.609Z,63.80
2017-12-17T22:37:57.147Z,64.00
2017-12-17T22:40:24.676Z,63.00
2017-12-17T22:42:53.098Z,62.10
2017-12-17T22:45:20.663Z,62.10
2017-12-17T22:47:48.345Z,61.30
2017-12-17T22:50:16.850Z,61.30
2017-12-17T22:52:44.472Z,61.10
2017-12-17T22:55:11.993Z,60.30
2017-12-17T22:57:40.257Z,56.40
2017-12-17T23:00:07.759Z,56.40
2017-12-17T23:02:36.039Z,55.60
2017-12-17T23:05:04.349Z,55.30
2017-12-17T23:07:31.858Z,55.30
2017-12-17T23:09:59.381Z,55.20
2017-12-17T23:12:27.635Z,53.60
2017-12-17T23:14:55.217Z,53.00
2017-12-17T23:17:22.712Z,53.80
2017-12-17T23:19:50.231Z,54.40
2017-12-17T23:22:17.729Z,55.50
2017-12-17T23:24:45.261Z,56.10
2017-12-17T23:27:13.637Z,56.50
2017-12-17T23:29:41.159Z,56.80
2017-12-17T23:32:09.281Z,56.80
2017-12-17T23:34:38.517Z,58.50
2017-12-17T23:37:06.026Z,57.90
2017-12-17T23:39:34.289Z,57.90
2017-12-17T23:42:02.662Z,57.90
2017-12-17T23:44:30.166Z,58.00
2017-12-17T23:46:57.724Z,58.40
2017-12-17T23:49:26.079Z,60.00
2017-12-17T23:51:53.625Z,59.90
2017-12-17T23:54:21.156Z,60.00
2017-12-17T23:56:48.662Z,60.60
2017-12-17T23:59:16.166Z,60.80
